createdAt,value
2018-07-22T00:00:03.373Z,1008.15
2018-07-22T00:01:03.373Z,1008.15
2018-07-22T00:02:03.389Z,1008.12
2018-07-22T00:03:03.383Z,1008.17
2018-07-22T00:04:03.380Z,1008.19
2018-07-22T00:05:03.384Z,1008.15
2018-07-22T00:06:03.389Z,1008.16
2018-07-22T00:07:03.392Z,1008.14
2018-07-22T00:08:03.388Z,1008.15
2018-07-22T00:09:03.389Z,1008.16
2018-07-22T00:10:03.394Z,1008.16
2018-07-22T00:11:03.393Z,1008.13
2018-07-22T00:12:03.395Z,1008.17
2018-07-22T00:13:03.397Z,1008.13
2018-07-22T00:14:03.418Z,1008.14
2018-07-22T00:15:03.406Z,1008.10
2018-07-22T00:16:03.407Z,1008.14
2018-07-22T00:17:03.411Z,1008.10
2018-07-22T00:18:03.410Z,1008.05
2018-07-22T00:19:03.417Z,1008.06
2018-07-22T00:20:03.413Z,1008.07
2018-07-22T00:21:03.416Z,1008.10
2018-07-22T00:22:03.419Z,1008.12
2018-07-22T00:23:03.423Z,1008.11
2018-07-22T00:24:03.423Z,1008.13
2018-07-22T00:25:03.430Z,1008.09
2018-07-22T00:26:03.433Z,1008.10
2018-07-22T00:27:03.428Z,1008.08
2018-07-22T00:28:03.432Z,1008.09
2018-07-22T00:29:03.446Z,1008.08
2018-07-22T00:30:03.435Z,1008.08
2018-07-22T00:31:03.482Z,1008.05
2018-07-22T00:32:03.441Z,1008.13
2018-07-22T00:33:03.443Z,1008.10
2018-07-22T00:34:03.440Z,1008.15
2018-07-22T00:35:03.461Z,1008.14
2018-07-22T00:36:03.447Z,1008.13
2018-07-22T00:37:03.451Z,1008.15
2018-07-22T00:38:03.453Z,1008.14
2018-07-22T00:39:03.491Z,1008.19
2018-07-22T00:40:03.456Z,1008.19
2018-07-22T00:41:03.463Z,1008.21
2018-07-22T00:42:03.460Z,1008.23
2018-07-22T00:43:03.463Z,1008.23
2018-07-22T00:44:03.471Z,1008.24
2018-07-22T00:45:03.466Z,1008.26
2018-07-22T00:46:03.467Z,1008.25
2018-07-22T00:47:03.472Z,1008.29
2018-07-22T00:48:03.471Z,1008.29
2018-07-22T00:49:03.475Z,1008.30
2018-07-22T00:50:03.477Z,1008.32
2018-07-22T00:51:03.481Z,1008.28
2018-07-22T00:52:03.481Z,1008.28
2018-07-22T00:53:03.483Z,1008.30
2018-07-22T00:54:03.486Z,1008.28
2018-07-22T00:55:03.485Z,1008.25
2018-07-22T00:56:03.493Z,1008.28
2018-07-22T00:57:03.489Z,1008.25
2018-07-22T00:58:03.493Z,1008.28
2018-07-22T00:59:03.494Z,1008.27
2018-07-22T01:00:03.587Z,1008.28
2018-07-22T01:01:03.502Z,1008.23
2018-07-22T01:02:03.503Z,1008.28
2018-07-22T01:03:03.504Z,1008.30
2018-07-22T01:04:03.508Z,1008.30
2018-07-22T01:05:03.508Z,1008.27
2018-07-22T01:06:03.516Z,1008.26
2018-07-22T01:07:03.513Z,1008.24
2018-07-22T01:08:03.516Z,1008.21
2018-07-22T01:09:03.514Z,1008.20
2018-07-22T01:10:03.525Z,1008.17
2018-07-22T01:11:03.520Z,1008.16
2018-07-22T01:12:03.521Z,1008.17
2018-07-22T01:13:03.523Z,1008.19
2018-07-22T01:14:03.533Z,1008.19
2018-07-22T01:15:03.524Z,1008.18
2018-07-22T01:16:03.530Z,1008.17
2018-07-22T01:17:03.526Z,1008.19
2018-07-22T01:18:03.530Z,1008.20
2018-07-22T01:19:03.533Z,1008.20
2018-07-22T01:20:03.541Z,1008.18
2018-07-22T01:21:03.539Z,1008.23
2018-07-22T01:22:03.541Z,1008.26
2018-07-22T01:23:03.543Z,1008.29
2018-07-22T01:24:03.544Z,1008.30
2018-07-22T01:25:03.550Z,1008.29
2018-07-22T01:26:03.552Z,1008.30
2018-07-22T01:27:03.552Z,1008.30
2018-07-22T01:28:03.551Z,1008.29
2018-07-22T01:29:03.555Z,1008.29
2018-07-22T01:30:03.558Z,1008.22
2018-07-22T01:31:03.559Z,1008.24
2018-07-22T01:32:03.562Z,1008.26
2018-07-22T01:33:03.565Z,1008.27
2018-07-22T01:34:03.564Z,1008.26
2018-07-22T01:35:03.565Z,1008.25
2018-07-22T01:36:03.567Z,1008.27
2018-07-22T01:37:03.568Z,1008.25
2018-07-22T01:38:03.580Z,1008.27
2018-07-22T01:39:03.569Z,1008.32
2018-07-22T01:40:03.572Z,1008.30
2018-07-22T01:41:03.579Z,1008.30
2018-07-22T01:42:03.578Z,1008.29
2018-07-22T01:43:03.580Z,1008.32
2018-07-22T01:44:03.586Z,1008.31
2018-07-22T01:45:03.585Z,1008.31
2018-07-22T01:46:03.586Z,1008.33
2018-07-22T01:47:03.586Z,1008.32
2018-07-22T01:48:03.589Z,1008.35
2018-07-22T01:49:03.590Z,1008.31
2018-07-22T01:50:03.593Z,1008.31
2018-07-22T01:51:03.595Z,1008.32
2018-07-22T01:52:03.594Z,1008.32
2018-07-22T01:53:03.596Z,1008.28
2018-07-22T01:54:03.605Z,1008.30
2018-07-22T01:55:03.605Z,1008.26
2018-07-22T01:56:03.602Z,1008.29
2018-07-22T01:57:03.604Z,1008.29
2018-07-22T01:58:03.607Z,1008.31
2018-07-22T01:59:03.602Z,1008.31
2018-07-22T02:00:03.606Z,1008.31
2018-07-22T02:01:03.611Z,1008.30
2018-07-22T02:02:03.612Z,1008.33
2018-07-22T02:03:03.615Z,1008.32
2018-07-22T02:04:03.614Z,1008.33
2018-07-22T02:05:03.615Z,1008.35
2018-07-22T02:06:03.621Z,1008.32
2018-07-22T02:07:03.628Z,1008.34
2018-07-22T02:08:03.622Z,1008.41
2018-07-22T02:09:03.620Z,1008.36
2018-07-22T02:10:03.622Z,1008.35
2018-07-22T02:11:03.651Z,1008.33
2018-07-22T02:12:03.626Z,1008.33
2018-07-22T02:13:03.630Z,1008.37
2018-07-22T02:14:03.631Z,1008.34
2018-07-22T02:15:03.630Z,1008.36
2018-07-22T02:16:03.632Z,1008.33
2018-07-22T02:17:03.637Z,1008.36
2018-07-22T02:18:03.639Z,1008.33
2018-07-22T02:19:03.633Z,1008.36
2018-07-22T02:20:03.638Z,1008.36
2018-07-22T02:21:03.642Z,1008.34
2018-07-22T02:22:03.643Z,1008.32
2018-07-22T02:23:03.643Z,1008.32
2018-07-22T02:24:03.644Z,1008.32
2018-07-22T02:25:03.649Z,1008.30
2018-07-22T02:26:03.648Z,1008.28
2018-07-22T02:27:03.649Z,1008.30
2018-07-22T02:28:03.654Z,1008.30
2018-07-22T02:29:03.651Z,1008.27
2018-07-22T02:30:03.654Z,1008.28
2018-07-22T02:31:03.660Z,1008.27
2018-07-22T02:32:03.655Z,1008.27
2018-07-22T02:33:03.665Z,1008.30
2018-07-22T02:34:03.660Z,1008.33
2018-07-22T02:35:03.660Z,1008.31
2018-07-22T02:36:03.663Z,1008.33
2018-07-22T02:37:03.664Z,1008.31
2018-07-22T02:38:03.660Z,1008.34
2018-07-22T02:39:03.663Z,1008.33
2018-07-22T02:40:03.667Z,1008.33
2018-07-22T02:41:03.674Z,1008.30
2018-07-22T02:42:03.672Z,1008.33
2018-07-22T02:43:03.672Z,1008.33
2018-07-22T02:44:03.675Z,1008.31
2018-07-22T02:45:03.673Z,1008.32
2018-07-22T02:46:03.677Z,1008.33
2018-07-22T02:47:03.678Z,1008.37
2018-07-22T02:48:03.679Z,1008.40
2018-07-22T02:49:03.686Z,1008.36
2018-07-22T02:50:03.690Z,1008.41
2018-07-22T02:51:03.682Z,1008.35
2018-07-22T02:52:03.681Z,1008.43
2018-07-22T02:53:03.682Z,1008.44
2018-07-22T02:54:03.684Z,1008.46
2018-07-22T02:55:03.684Z,1008.48
2018-07-22T02:56:03.690Z,1008.49
2018-07-22T02:57:03.685Z,1008.53
2018-07-22T02:58:03.690Z,1008.51
2018-07-22T02:59:03.691Z,1008.49
2018-07-22T03:00:03.694Z,1008.48
2018-07-22T03:01:03.692Z,1008.50
2018-07-22T03:02:03.694Z,1008.51
2018-07-22T03:03:03.693Z,1008.49
2018-07-22T03:04:03.696Z,1008.46
2018-07-22T03:05:03.698Z,1008.45
2018-07-22T03:06:03.697Z,1008.46
2018-07-22T03:07:03.695Z,1008.47
2018-07-22T03:08:03.704Z,1008.47
2018-07-22T03:09:03.702Z,1008.47
2018-07-22T03:10:03.702Z,1008.48
2018-07-22T03:11:03.702Z,1008.49
2018-07-22T03:12:03.704Z,1008.52
2018-07-22T03:13:03.706Z,1008.48
2018-07-22T03:14:03.708Z,1008.49
2018-07-22T03:15:03.880Z,1008.50
2018-07-22T03:16:03.706Z,1008.51
2018-07-22T03:17:03.713Z,1008.50
2018-07-22T03:18:03.710Z,1008.50
2018-07-22T03:19:03.715Z,1008.52
2018-07-22T03:20:03.714Z,1008.52
2018-07-22T03:21:03.714Z,1008.53
2018-07-22T03:22:03.717Z,1008.51
2018-07-22T03:23:03.716Z,1008.51
2018-07-22T03:24:03.718Z,1008.54
2018-07-22T03:25:03.719Z,1008.52
2018-07-22T03:26:03.723Z,1008.49
2018-07-22T03:27:03.722Z,1008.51
2018-07-22T03:28:03.722Z,1008.53
2018-07-22T03:29:03.726Z,1008.52
2018-07-22T03:30:03.725Z,1008.56
2018-07-22T03:31:03.726Z,1008.57
2018-07-22T03:32:03.730Z,1008.58
2018-07-22T03:33:03.725Z,1008.58
2018-07-22T03:34:03.726Z,1008.60
2018-07-22T03:35:03.730Z,1008.58
2018-07-22T03:36:03.731Z,1008.57
2018-07-22T03:37:03.733Z,1008.59
2018-07-22T03:38:03.734Z,1008.58
2018-07-22T03:39:03.739Z,1008.60
2018-07-22T03:40:03.735Z,1008.64
2018-07-22T03:41:03.737Z,1008.61
2018-07-22T03:42:03.740Z,1008.59
2018-07-22T03:43:03.739Z,1008.60
2018-07-22T03:44:03.742Z,1008.59
2018-07-22T03:45:03.741Z,1008.57
2018-07-22T03:46:03.743Z,1008.59
2018-07-22T03:47:03.747Z,1008.62
2018-07-22T03:48:03.744Z,1008.62
2018-07-22T03:49:03.745Z,1008.60
2018-07-22T03:50:03.809Z,1008.60
2018-07-22T03:51:03.743Z,1008.60
2018-07-22T03:52:03.747Z,1008.58
2018-07-22T03:53:03.750Z,1008.60
2018-07-22T03:54:03.751Z,1008.63
2018-07-22T03:55:03.752Z,1008.60
2018-07-22T03:56:03.752Z,1008.63
2018-07-22T03:57:03.755Z,1008.59
2018-07-22T03:58:03.757Z,1008.58
2018-07-22T03:59:03.756Z,1008.59
2018-07-22T04:00:03.757Z,1008.62
2018-07-22T04:01:03.757Z,1008.64
2018-07-22T04:02:03.760Z,1008.63
2018-07-22T04:03:03.759Z,1008.64
2018-07-22T04:04:03.761Z,1008.64
2018-07-22T04:05:03.762Z,1008.68
2018-07-22T04:06:03.765Z,1008.69
2018-07-22T04:07:03.783Z,1008.70
2018-07-22T04:08:03.765Z,1008.69
2018-07-22T04:09:03.769Z,1008.68
2018-07-22T04:10:03.763Z,1008.70
2018-07-22T04:11:03.769Z,1008.66
2018-07-22T04:12:03.768Z,1008.66
2018-07-22T04:13:03.771Z,1008.65
2018-07-22T04:14:03.771Z,1008.65
2018-07-22T04:15:03.776Z,1008.61
2018-07-22T04:16:03.774Z,1008.62
2018-07-22T04:17:03.772Z,1008.61
2018-07-22T04:18:03.778Z,1008.59
2018-07-22T04:19:03.777Z,1008.58
2018-07-22T04:20:03.782Z,1008.56
2018-07-22T04:21:03.780Z,1008.59
2018-07-22T04:22:03.782Z,1008.61
2018-07-22T04:23:03.783Z,1008.60
2018-07-22T04:24:03.787Z,1008.61
2018-07-22T04:25:03.788Z,1008.63
2018-07-22T04:26:03.823Z,1008.63
2018-07-22T04:27:03.789Z,1008.67
2018-07-22T04:28:03.789Z,1008.67
2018-07-22T04:29:03.790Z,1008.67
2018-07-22T04:30:03.793Z,1008.69
2018-07-22T04:31:03.793Z,1008.66
2018-07-22T04:32:03.795Z,1008.67
2018-07-22T04:33:03.795Z,1008.69
2018-07-22T04:34:03.799Z,1008.68
2018-07-22T04:35:03.799Z,1008.66
2018-07-22T04:36:03.798Z,1008.65
2018-07-22T04:37:03.796Z,1008.68
2018-07-22T04:38:03.804Z,1008.64
2018-07-22T04:39:03.806Z,1008.62
2018-07-22T04:40:03.813Z,1008.63
2018-07-22T04:41:03.808Z,1008.62
2018-07-22T04:42:03.810Z,1008.66
2018-07-22T04:43:03.808Z,1008.64
2018-07-22T04:44:03.811Z,1008.66
2018-07-22T04:45:03.817Z,1008.63
2018-07-22T04:46:03.816Z,1008.63
2018-07-22T04:47:03.810Z,1008.60
2018-07-22T04:48:03.814Z,1008.62
2018-07-22T04:49:03.819Z,1008.65
2018-07-22T04:50:03.821Z,1008.60
2018-07-22T04:51:03.822Z,1008.66
2018-07-22T04:52:03.824Z,1008.66
2018-07-22T04:53:03.828Z,1008.65
2018-07-22T04:54:03.827Z,1008.66
2018-07-22T04:55:03.831Z,1008.64
2018-07-22T04:56:03.832Z,1008.68
2018-07-22T04:57:03.832Z,1008.67
2018-07-22T04:58:03.834Z,1008.67
2018-07-22T04:59:03.837Z,1008.67
2018-07-22T05:00:03.833Z,1008.65
2018-07-22T05:01:03.842Z,1008.63
2018-07-22T05:02:03.845Z,1008.63
2018-07-22T05:03:03.841Z,1008.62
2018-07-22T05:04:03.844Z,1008.64
2018-07-22T05:05:03.846Z,1008.61
2018-07-22T05:06:03.846Z,1008.60
2018-07-22T05:07:03.849Z,1008.60
2018-07-22T05:08:03.848Z,1008.62
2018-07-22T05:09:03.852Z,1008.62
2018-07-22T05:10:03.856Z,1008.64
2018-07-22T05:11:03.856Z,1008.63
2018-07-22T05:12:03.857Z,1008.62
2018-07-22T05:13:03.862Z,1008.62
2018-07-22T05:14:03.863Z,1008.61
2018-07-22T05:15:03.866Z,1008.62
2018-07-22T05:16:03.861Z,1008.64
2018-07-22T05:17:03.867Z,1008.60
2018-07-22T05:18:03.870Z,1008.65
2018-07-22T05:19:03.877Z,1008.64
2018-07-22T05:20:03.876Z,1008.67
2018-07-22T05:21:03.876Z,1008.68
2018-07-22T05:22:03.876Z,1008.64
2018-07-22T05:23:03.881Z,1008.63
2018-07-22T05:24:03.881Z,1008.64
2018-07-22T05:25:03.887Z,1008.62
2018-07-22T05:26:03.886Z,1008.63
2018-07-22T05:27:03.894Z,1008.62
2018-07-22T05:28:03.889Z,1008.62
2018-07-22T05:29:03.893Z,1008.63
2018-07-22T05:30:03.894Z,1008.60
2018-07-22T05:31:03.897Z,1008.63
2018-07-22T05:32:03.899Z,1008.64
2018-07-22T05:33:03.900Z,1008.62
2018-07-22T05:34:03.904Z,1008.61
2018-07-22T05:35:03.905Z,1008.61
2018-07-22T05:36:03.914Z,1008.61
2018-07-22T05:37:03.910Z,1008.61
2018-07-22T05:38:03.915Z,1008.63
2018-07-22T05:39:03.918Z,1008.65
2018-07-22T05:40:03.922Z,1008.65
2018-07-22T05:41:03.919Z,1008.63
2018-07-22T05:42:03.942Z,1008.65
2018-07-22T05:43:03.928Z,1008.68
2018-07-22T05:44:03.927Z,1008.70
2018-07-22T05:45:03.928Z,1008.69
2018-07-22T05:46:03.931Z,1008.70
2018-07-22T05:47:03.933Z,1008.72
2018-07-22T05:48:03.935Z,1008.72
2018-07-22T05:49:03.938Z,1008.68
2018-07-22T05:50:03.939Z,1008.71
2018-07-22T05:51:03.940Z,1008.74
2018-07-22T05:52:03.941Z,1008.75
2018-07-22T05:53:03.970Z,1008.76
2018-07-22T05:54:04.021Z,1008.72
2018-07-22T05:55:03.950Z,1008.73
2018-07-22T05:56:03.953Z,1008.72
2018-07-22T05:57:03.957Z,1008.74
2018-07-22T05:58:03.963Z,1008.74
2018-07-22T05:59:03.960Z,1008.74
2018-07-22T06:00:03.963Z,1008.76
2018-07-22T06:01:03.966Z,1008.78
2018-07-22T06:02:03.967Z,1008.81
2018-07-22T06:03:03.995Z,1008.83
2018-07-22T06:04:03.974Z,1008.89
2018-07-22T06:05:03.975Z,1008.90
2018-07-22T06:06:03.980Z,1008.87
2018-07-22T06:07:03.980Z,1008.91
2018-07-22T06:08:03.985Z,1008.90
2018-07-22T06:09:03.992Z,1008.93
2018-07-22T06:10:03.988Z,1008.94
2018-07-22T06:11:03.990Z,1008.94
2018-07-22T06:12:04.051Z,1008.91
2018-07-22T06:13:03.998Z,1008.93
2018-07-22T06:14:04.000Z,1008.99
2018-07-22T06:15:04.000Z,1008.99
2018-07-22T06:16:04.000Z,1008.99
2018-07-22T06:17:04.007Z,1008.98
2018-07-22T06:18:04.011Z,1009.01
2018-07-22T06:19:04.013Z,1009.02
2018-07-22T06:20:04.043Z,1009.04
2018-07-22T06:21:04.019Z,1009.03
2018-07-22T06:22:04.021Z,1009.06
2018-07-22T06:23:04.026Z,1009.05
2018-07-22T06:24:04.028Z,1009.06
2018-07-22T06:25:04.033Z,1009.09
2018-07-22T06:26:04.037Z,1009.05
2018-07-22T06:27:04.035Z,1009.08
2018-07-22T06:28:04.039Z,1009.09
2018-07-22T06:29:04.042Z,1009.09
2018-07-22T06:30:04.046Z,1009.08
2018-07-22T06:31:04.050Z,1009.02
2018-07-22T06:32:04.054Z,1009.06
2018-07-22T06:33:04.060Z,1009.08
2018-07-22T06:34:04.061Z,1009.04
2018-07-22T06:35:04.053Z,1009.07
2018-07-22T06:36:04.066Z,1009.05
2018-07-22T06:37:04.066Z,1009.07
2018-07-22T06:38:04.063Z,1009.06
2018-07-22T06:39:04.074Z,1009.09
2018-07-22T06:40:04.075Z,1009.15
2018-07-22T06:41:04.129Z,1009.17
2018-07-22T06:42:04.085Z,1009.20
2018-07-22T06:43:04.081Z,1009.17
2018-07-22T06:44:04.084Z,1009.21
2018-07-22T06:45:04.090Z,1009.17
2018-07-22T06:46:04.112Z,1009.21
2018-07-22T06:47:04.100Z,1009.20
2018-07-22T06:48:04.102Z,1009.19
2018-07-22T06:49:04.118Z,1009.18
2018-07-22T06:50:04.108Z,1009.15
2018-07-22T06:51:04.114Z,1009.12
2018-07-22T06:52:04.115Z,1009.12
2018-07-22T06:53:04.120Z,1009.11
2018-07-22T06:54:04.123Z,1009.13
2018-07-22T06:55:04.128Z,1009.15
2018-07-22T06:56:04.130Z,1009.13
2018-07-22T06:57:04.145Z,1009.12
2018-07-22T06:58:04.136Z,1009.12
2018-07-22T06:59:04.139Z,1009.12
2018-07-22T07:00:04.146Z,1009.09
2018-07-22T07:01:04.149Z,1009.10
2018-07-22T07:02:04.153Z,1009.12
2018-07-22T07:03:04.157Z,1009.11
2018-07-22T07:04:04.155Z,1009.10
2018-07-22T07:05:04.198Z,1009.10
2018-07-22T07:06:04.166Z,1009.14
2018-07-22T07:07:04.172Z,1009.12
2018-07-22T07:08:04.173Z,1009.08
2018-07-22T07:09:04.373Z,1009.13
2018-07-22T07:10:04.182Z,1009.14
2018-07-22T07:11:04.194Z,1009.13
2018-07-22T07:12:04.193Z,1009.16
2018-07-22T07:13:04.194Z,1009.15
2018-07-22T07:14:04.198Z,1009.20
2018-07-22T07:15:04.203Z,1009.19
2018-07-22T07:16:04.279Z,1009.23
2018-07-22T07:17:04.210Z,1009.21
2018-07-22T07:18:04.217Z,1009.22
2018-07-22T07:19:04.218Z,1009.22
2018-07-22T07:20:04.224Z,1009.26
2018-07-22T07:21:04.230Z,1009.26
2018-07-22T07:22:04.245Z,1009.26
2018-07-22T07:23:04.242Z,1009.29
2018-07-22T07:24:04.248Z,1009.28
2018-07-22T07:25:04.254Z,1009.28
2018-07-22T07:26:04.258Z,1009.26
2018-07-22T07:27:04.270Z,1009.26
2018-07-22T07:28:04.270Z,1009.27
2018-07-22T07:29:04.274Z,1009.27
2018-07-22T07:30:04.286Z,1009.27
2018-07-22T07:31:04.288Z,1009.31
2018-07-22T07:32:04.292Z,1009.31
2018-07-22T07:33:04.299Z,1009.33
2018-07-22T07:34:04.308Z,1009.36
2018-07-22T07:35:04.312Z,1009.35
2018-07-22T07:36:04.318Z,1009.32
2018-07-22T07:37:04.324Z,1009.34
2018-07-22T07:38:04.330Z,1009.32
2018-07-22T07:39:04.334Z,1009.34
2018-07-22T07:40:04.344Z,1009.34
2018-07-22T07:41:04.363Z,1009.32
2018-07-22T07:42:04.363Z,1009.36
2018-07-22T07:43:04.362Z,1009.35
2018-07-22T07:44:04.364Z,1009.36
2018-07-22T07:45:04.373Z,1009.34
2018-07-22T07:46:04.378Z,1009.32
2018-07-22T07:47:04.398Z,1009.36
2018-07-22T07:48:04.393Z,1009.31
2018-07-22T07:49:04.399Z,1009.35
2018-07-22T07:50:04.406Z,1009.33
2018-07-22T07:51:04.418Z,1009.26
2018-07-22T07:52:04.420Z,1009.27
2018-07-22T07:53:04.426Z,1009.27
2018-07-22T07:54:04.442Z,1009.24
2018-07-22T07:55:04.436Z,1009.28
2018-07-22T07:56:04.442Z,1009.27
2018-07-22T07:57:04.449Z,1009.27
2018-07-22T07:58:04.456Z,1009.26
2018-07-22T07:59:04.461Z,1009.28
2018-07-22T08:00:04.475Z,1009.28
2018-07-22T08:01:04.476Z,1009.26
2018-07-22T08:02:04.482Z,1009.29
2018-07-22T08:03:04.491Z,1009.29
2018-07-22T08:04:04.500Z,1009.29
2018-07-22T08:05:04.506Z,1009.30
2018-07-22T08:06:04.513Z,1009.28
2018-07-22T08:07:04.520Z,1009.28
2018-07-22T08:08:04.545Z,1009.27
2018-07-22T08:09:04.548Z,1009.31
2018-07-22T08:10:04.543Z,1009.32
2018-07-22T08:11:04.550Z,1009.35
2018-07-22T08:12:04.558Z,1009.29
2018-07-22T08:13:04.565Z,1009.35
2018-07-22T08:14:04.573Z,1009.34
2018-07-22T08:15:04.584Z,1009.38
2018-07-22T08:16:04.591Z,1009.38
2018-07-22T08:17:04.597Z,1009.39
2018-07-22T08:18:04.605Z,1009.41
2018-07-22T08:19:04.642Z,1009.44
2018-07-22T08:20:04.624Z,1009.41
2018-07-22T08:21:04.630Z,1009.43
2018-07-22T08:22:04.654Z,1009.43
2018-07-22T08:23:04.647Z,1009.45
2018-07-22T08:24:04.655Z,1009.43
2018-07-22T08:25:04.669Z,1009.48
2018-07-22T08:26:04.737Z,1009.48
2018-07-22T08:27:04.716Z,1009.47
2018-07-22T08:28:04.695Z,1009.43
2018-07-22T08:29:04.708Z,1009.36
2018-07-22T08:30:04.715Z,1009.40
2018-07-22T08:31:04.723Z,1009.36
2018-07-22T08:32:04.736Z,1009.35
2018-07-22T08:33:04.748Z,1009.43
2018-07-22T08:34:04.753Z,1009.42
2018-07-22T08:35:04.765Z,1009.41
2018-07-22T08:36:04.800Z,1009.38
2018-07-22T08:37:04.811Z,1009.43
2018-07-22T08:38:04.802Z,1009.47
2018-07-22T08:39:04.804Z,1009.44
2018-07-22T08:40:04.817Z,1009.39
2018-07-22T08:41:04.842Z,1009.40
2018-07-22T08:42:04.832Z,1009.34
2018-07-22T08:43:04.849Z,1009.34
2018-07-22T08:44:04.855Z,1009.33
2018-07-22T08:45:04.866Z,1009.37
2018-07-22T08:46:04.879Z,1009.34
2018-07-22T08:47:04.887Z,1009.37
2018-07-22T08:48:04.900Z,1009.33
2018-07-22T08:49:04.912Z,1009.29
2018-07-22T08:50:04.920Z,1009.35
2018-07-22T08:51:04.928Z,1009.39
2018-07-22T08:52:04.939Z,1009.39
2018-07-22T08:53:04.959Z,1009.32
2018-07-22T08:54:04.958Z,1009.32
2018-07-22T08:55:04.966Z,1009.27
2018-07-22T08:56:04.977Z,1009.27
2018-07-22T08:57:04.992Z,1009.31
2018-07-22T08:58:04.997Z,1009.34
2018-07-22T08:59:05.071Z,1009.32
2018-07-22T09:00:05.018Z,1009.33
2018-07-22T09:01:05.029Z,1009.33
2018-07-22T09:02:05.040Z,1009.30
2018-07-22T09:03:05.048Z,1009.29
2018-07-22T09:04:05.064Z,1009.32
2018-07-22T09:05:05.066Z,1009.33
2018-07-22T09:06:05.132Z,1009.30
2018-07-22T09:07:05.083Z,1009.32
2018-07-22T09:08:05.094Z,1009.32
2018-07-22T09:09:05.132Z,1009.35
2018-07-22T09:10:05.109Z,1009.37
2018-07-22T09:11:05.119Z,1009.37
2018-07-22T09:12:05.132Z,1009.36
2018-07-22T09:13:05.137Z,1009.37
2018-07-22T09:14:05.145Z,1009.40
2018-07-22T09:15:05.152Z,1009.40
2018-07-22T09:16:05.161Z,1009.42
2018-07-22T09:17:05.172Z,1009.40
2018-07-22T09:18:05.198Z,1009.36
2018-07-22T09:19:05.187Z,1009.38
2018-07-22T09:20:05.193Z,1009.39
2018-07-22T09:21:05.200Z,1009.37
2018-07-22T09:22:05.207Z,1009.40
2018-07-22T09:23:05.216Z,1009.38
2018-07-22T09:24:05.223Z,1009.40
2018-07-22T09:25:05.232Z,1009.41
2018-07-22T09:26:05.241Z,1009.37
2018-07-22T09:27:05.252Z,1009.40
2018-07-22T09:28:05.255Z,1009.38
2018-07-22T09:29:05.264Z,1009.39
2018-07-22T09:30:05.270Z,1009.37
2018-07-22T09:31:05.280Z,1009.41
2018-07-22T09:32:05.286Z,1009.41
2018-07-22T09:33:05.295Z,1009.43
2018-07-22T09:34:05.302Z,1009.43
2018-07-22T09:35:05.308Z,1009.43
2018-07-22T09:36:05.449Z,1009.41
2018-07-22T09:37:05.325Z,1009.43
2018-07-22T09:38:05.334Z,1009.45
2018-07-22T09:39:05.338Z,1009.44
2018-07-22T09:40:05.348Z,1009.46
2018-07-22T09:41:05.357Z,1009.45
2018-07-22T09:42:05.363Z,1009.40
2018-07-22T09:43:05.374Z,1009.42
2018-07-22T09:44:05.384Z,1009.43
2018-07-22T09:45:05.402Z,1009.44
2018-07-22T09:46:05.392Z,1009.43
2018-07-22T09:47:05.414Z,1009.42
2018-07-22T09:48:05.458Z,1009.44
2018-07-22T09:49:05.419Z,1009.43
2018-07-22T09:50:05.423Z,1009.43
2018-07-22T09:51:05.430Z,1009.42
2018-07-22T09:52:05.440Z,1009.40
2018-07-22T09:53:05.449Z,1009.41
2018-07-22T09:54:05.456Z,1009.39
2018-07-22T09:55:05.462Z,1009.42
2018-07-22T09:56:05.468Z,1009.42
2018-07-22T09:57:05.475Z,1009.39
2018-07-22T09:58:05.484Z,1009.40
2018-07-22T09:59:05.500Z,1009.40
2018-07-22T10:00:05.500Z,1009.42
2018-07-22T10:01:05.530Z,1009.39
2018-07-22T10:02:05.514Z,1009.39
2018-07-22T10:03:05.524Z,1009.39
2018-07-22T10:04:05.529Z,1009.41
2018-07-22T10:05:05.537Z,1009.39
2018-07-22T10:06:05.545Z,1009.40
2018-07-22T10:07:05.550Z,1009.41
2018-07-22T10:08:05.558Z,1009.38
2018-07-22T10:09:05.567Z,1009.40
2018-07-22T10:10:05.577Z,1009.37
2018-07-22T10:11:05.609Z,1009.36
2018-07-22T10:12:05.591Z,1009.35
2018-07-22T10:13:05.616Z,1009.38
2018-07-22T10:14:05.606Z,1009.35
2018-07-22T10:15:05.610Z,1009.37
2018-07-22T10:16:05.618Z,1009.33
2018-07-22T10:17:05.629Z,1009.37
2018-07-22T10:18:05.633Z,1009.33
2018-07-22T10:19:05.640Z,1009.31
2018-07-22T10:20:05.649Z,1009.33
2018-07-22T10:21:05.659Z,1009.36
2018-07-22T10:22:05.667Z,1009.39
2018-07-22T10:23:05.674Z,1009.37
2018-07-22T10:24:05.681Z,1009.37
2018-07-22T10:25:05.691Z,1009.36
2018-07-22T10:26:05.697Z,1009.35
2018-07-22T10:27:05.705Z,1009.34
2018-07-22T10:28:05.711Z,1009.35
2018-07-22T10:29:05.719Z,1009.36
2018-07-22T10:30:05.726Z,1009.35
2018-07-22T10:31:05.738Z,1009.34
2018-07-22T10:32:05.742Z,1009.37
2018-07-22T10:33:05.748Z,1009.36
2018-07-22T10:34:05.798Z,1009.36
2018-07-22T10:35:05.763Z,1009.37
2018-07-22T10:36:05.771Z,1009.36
2018-07-22T10:37:05.775Z,1009.40
2018-07-22T10:38:05.801Z,1009.39
2018-07-22T10:39:05.793Z,1009.40
2018-07-22T10:40:05.801Z,1009.43
2018-07-22T10:41:05.810Z,1009.40
2018-07-22T10:42:05.818Z,1009.37
2018-07-22T10:43:05.855Z,1009.37
2018-07-22T10:44:05.831Z,1009.37
2018-07-22T10:45:05.838Z,1009.34
2018-07-22T10:46:05.846Z,1009.35
2018-07-22T10:47:05.852Z,1009.31
2018-07-22T10:48:05.925Z,1009.37
2018-07-22T10:49:05.866Z,1009.37
2018-07-22T10:50:05.875Z,1009.32
2018-07-22T10:51:05.954Z,1009.37
2018-07-22T10:52:05.893Z,1009.33
2018-07-22T10:53:05.901Z,1009.36
2018-07-22T10:54:05.907Z,1009.35
2018-07-22T10:55:05.911Z,1009.36
2018-07-22T10:56:05.916Z,1009.37
2018-07-22T10:57:05.928Z,1009.37
2018-07-22T10:58:05.931Z,1009.35
2018-07-22T10:59:05.938Z,1009.38
2018-07-22T11:00:05.945Z,1009.37
2018-07-22T11:01:05.955Z,1009.36
2018-07-22T11:02:05.964Z,1009.38
2018-07-22T11:03:05.970Z,1009.39
2018-07-22T11:04:05.977Z,1009.43
2018-07-22T11:05:05.984Z,1009.40
2018-07-22T11:06:05.992Z,1009.40
2018-07-22T11:07:05.999Z,1009.39
2018-07-22T11:08:06.005Z,1009.38
2018-07-22T11:09:06.013Z,1009.36
2018-07-22T11:10:06.023Z,1009.36
2018-07-22T11:11:06.026Z,1009.36
2018-07-22T11:12:06.033Z,1009.34
2018-07-22T11:13:06.035Z,1009.36
2018-07-22T11:14:06.101Z,1009.35
2018-07-22T11:15:06.053Z,1009.34
2018-07-22T11:16:06.065Z,1009.38
2018-07-22T11:17:06.073Z,1009.37
2018-07-22T11:18:06.079Z,1009.39
2018-07-22T11:19:06.086Z,1009.38
2018-07-22T11:20:06.091Z,1009.36
2018-07-22T11:21:06.173Z,1009.39
2018-07-22T11:22:06.117Z,1009.41
2018-07-22T11:23:06.111Z,1009.40
2018-07-22T11:24:06.122Z,1009.42
2018-07-22T11:25:06.128Z,1009.39
2018-07-22T11:26:06.131Z,1009.40
2018-07-22T11:27:06.138Z,1009.46
2018-07-22T11:28:06.144Z,1009.40
2018-07-22T11:29:06.247Z,1009.41
2018-07-22T11:30:06.159Z,1009.41
2018-07-22T11:31:06.175Z,1009.40
2018-07-22T11:32:06.172Z,1009.42
2018-07-22T11:33:06.179Z,1009.44
2018-07-22T11:34:06.186Z,1009.44
2018-07-22T11:35:06.268Z,1009.44
2018-07-22T11:36:06.260Z,1009.42
2018-07-22T11:37:06.208Z,1009.46
2018-07-22T11:38:06.224Z,1009.43
2018-07-22T11:39:06.223Z,1009.43
2018-07-22T11:40:06.228Z,1009.49
2018-07-22T11:41:06.236Z,1009.50
2018-07-22T11:42:06.245Z,1009.48
2018-07-22T11:43:06.252Z,1009.50
2018-07-22T11:44:06.257Z,1009.50
2018-07-22T11:45:06.264Z,1009.48
2018-07-22T11:46:06.271Z,1009.46
2018-07-22T11:47:06.282Z,1009.47
2018-07-22T11:48:06.284Z,1009.45
2018-07-22T11:49:06.295Z,1009.44
2018-07-22T11:50:06.301Z,1009.44
2018-07-22T11:51:06.305Z,1009.45
2018-07-22T11:52:06.313Z,1009.43
2018-07-22T11:53:06.319Z,1009.51
2018-07-22T11:54:06.329Z,1009.47
2018-07-22T11:55:06.335Z,1009.47
2018-07-22T11:56:06.341Z,1009.47
2018-07-22T11:57:06.377Z,1009.44
2018-07-22T11:58:06.354Z,1009.45
2018-07-22T11:59:06.360Z,1009.49
2018-07-22T12:00:06.426Z,1009.47
2018-07-22T12:01:06.374Z,1009.49
2018-07-22T12:02:06.395Z,1009.47
2018-07-22T12:03:06.387Z,1009.46
2018-07-22T12:04:06.396Z,1009.41
2018-07-22T12:05:06.404Z,1009.45